Aérodrome :
LOGIN :

S'inscrire | Disclaimer

   EN    FR    IT 

 










Légende :    VFR   VFR Marginal   IFR   IFR Intensif   IFR Très Intensif
Visi : 
Plafond : 
>= 8 km
>= 3000ft
5 à 8 km
1000 à 3000 ft
1500m à 5 km
500 à 1000 ft
800 à 1500m
200 à 500 ft
< 800m
< 200 ft
Symboles :   Orages  Brouillard  Fortes neiges  Fortes précipitations  Vent > 20 kt
SIGMETs :   Divers  Orages  Givrage  Turbulence  Onde Orograph.  Cendres Volcan.






- Altitude de l'aérodrome : 82 ft
- Code IATA : AAR


EKAH - Aarhus Tirstrup

DERNIER METAR :
  • 231050Z AUTO 26013KT 220V290 9999NDV -RA BKN020/// 06/02 Q0999

METARs EXPIRÉS :
  • 231020Z AUTO 26011KT 220V290 9999NDV SCT020/// 06/02 Q0999
  • 230950Z AUTO 25011G22KT 210V280 9999NDV -RA FEW039/// SCT090/// 06/02 Q1000
  • 230920Z AUTO 25012KT 210V290 9999NDV BKN018/// 06/02 Q1000
  • 230850Z AUTO 25014KT 9999NDV SCT021/// BKN035/// 05/02 Q1000
  • 230820Z AUTO 25014G26KT 220V280 9999NDV FEW032/// SCT039/// 05/01 Q1000

TAF TAF EKAH
Valide du 23 à 06h jusqu'au 24 à 06h UTC


230504Z 2306/2406 26015KT 9999 BKN025
TEMPO 2306/2310 27018G32KT FEW020CB
TEMPO 2310/2323 SHRA SCT020CB
BECMG 2404/2406 28005KT



MET'MAP, la Météo Aéronautique d'un coup d'oeil ! - Copyright ORBIFLY Décembre 2007 - Disclaimer

ORBIFLY MET'MAP TEAM :

Programmation & Développement : Alexandra Zaïnal
Sur une idée originale de : Baudouin d'Aumeries
Assistance à la programmation : Marc-Olivier Méhu
Soutien technique & logistique : Manuel Goepfert

Contact : metmap@orbifly.com




SOURCES & CREDITS :

   NOAA